Kaministiqua — CFN4612 — position and weather

sailwx.info

Track history (hours):
 
Tides and Currents Weather Stations Pressure Air Temp Water Temp Dewpoint Dewpoint Depression Visibility Wind Speed Wind Dir Waves Ship Positions

Kaministiqua

Last reported at 2015-Sep-02 02:31 UTC. Time now 2015-Sep-02 17:03 UTC.
Position N 46°39' W 084°46'.

Length 223 m; draft 7.8 m.

Type: Cargo ship. MMSI: 316009457.

Date/timePositionNaut miles runAvg speedWind from/ knotsBaromVisibWave heightAir tempDewpointWater temp
2015-Sep-02 02:31N 46°39' W 084°46'11610.2
2015-Sep-01 15:11N 45°12' W 082°57'3511.7
2015-Sep-01 12:09N 44°37' W 082°53'711.5
2015-Sep-01 11:33N 44°30' W 082°50'159 4.7
2015-Aug-31 01:33N 42°17' W 080°48'2411.9
2015-Aug-30 23:33N 42°26' W 080°18'1711.9
2015-Aug-30 22:06N 42°33' W 079°57'712.1
2015-Aug-30 21:32N 42°37' W 079°49'41 5.9
2015-Aug-30 14:28N 43°08' W 079°12'1 0.7
2015-Aug-30 12:28N 43°09' W 079°12'1 1.3
2015-Aug-30 11:32N 43°11' W 079°12'1 1.1
2015-Aug-30 10:32N 43°12' W 079°12'1 0.8
2015-Aug-30 09:33N 43°12' W 079°13'1 0.9
2015-Aug-30 08:34N 43°13' W 079°13'1 0.8
2015-Aug-30 07:33N 43°14' W 079°13'20 9.0
2015-Aug-30 05:20N 43°27' W 078°51'234 8.3
2015-Aug-29 01:14N 45°14' W 074°00'5 7.8
2015-Aug-29 00:33N 45°18' W 073°56'1 1.0
2015-Aug-28 23:33N 45°19' W 073°55'4 3.5
2015-Aug-28 22:32N 45°21' W 073°51'8 8.5
2015-Aug-28 21:33N 45°25' W 073°40'5 4.6
2015-Aug-28 20:32N 45°24' W 073°34'6 1.9
2015-Aug-28 17:24N 45°30' W 073°31'43 7.4
2015-Aug-28 11:33N 46°06' W 072°58'9 9.4
2015-Aug-28 10:33N 46°13' W 072°49'1010.0
2015-Aug-28 09:33N 46°17' W 072°36'9 8.7
2015-Aug-28 08:33N 46°23' W 072°26'9 9.2
2015-Aug-28 07:33N 46°28' W 072°15'  
2015-Aug-25 22:26N 46°41' W 071°53'1112.3
2015-Aug-25 21:30N 46°34' W 072°06'1112.1
2015-Aug-25 20:33N 46°26' W 072°19'1212.3
2015-Aug-25 19:33N 46°19' W 072°33'1110.9
2015-Aug-25 18:33N 46°14' W 072°47'55 8.7
2015-Aug-25 12:16N 45°28' W 073°30'4 5.2
2015-Aug-25 11:33N 45°25' W 073°32'2 1.9
2015-Aug-25 10:32N 45°24' W 073°35'4 4.5
2015-Aug-25 09:33N 45°25' W 073°41'5 5.0
2015-Aug-25 08:33N 45°24' W 073°48'7 6.9
2015-Aug-25 07:33N 45°19' W 073°55'1 1.0
2015-Aug-25 06:33N 45°18' W 073°56'2 1.7
2015-Aug-25 05:33N 45°17' W 073°57'5 5.4
2015-Aug-25 04:33N 45°13' W 074°03'117 8.2
2015-Aug-24 14:19N 44°09' W 076°20'911.8
2015-Aug-24 13:32N 44°01' W 076°27'8612.0
2015-Aug-24 06:24N 43°30' W 078°18'1012.1
2015-Aug-24 05:33N 43°27' W 078°31'1211.8
2015-Aug-24 04:33N 43°24' W 078°47'1211.5
2015-Aug-24 03:33N 43°21' W 079°02'1010.2
2015-Aug-24 02:33N 43°14' W 079°13'2 1.7
2015-Aug-24 01:33N 43°13' W 079°13'1 1.3
2015-Aug-24 00:33N 43°12' W 079°12'2 2.0
2015-Aug-23 23:33N 43°10' W 079°12'1 0.8
2015-Aug-23 22:33N 43°09' W 079°12'1 0.6
2015-Aug-23 21:33N 43°08' W 079°12'0 0.3
2015-Aug-23 20:33N 43°08' W 079°12'1 0.5
2015-Aug-23 19:33N 43°07' W 079°12'2 2.3
2015-Aug-23 18:33N 43°05' W 079°13'50 6.3
2015-Aug-23 10:31N 42°28' W 079°60'  
Track history (hours):
 
Tides and Currents Weather Stations Pressure Air Temp Water Temp Dewpoint Dewpoint Depression Visibility Wind Speed Wind Dir Waves Ship Positions

Kaministiqua

Last reported at 2015-Sep-02 02:31 UTC. Time now 2015-Sep-02 17:03 UTC.
Position N 46°39' W 084°46'.

Length 223 m; draft 7.8 m.

Type: Cargo ship. MMSI: 316009457.

Date/timePositionNaut miles runAvg speedWind from/ knotsBaromVisibWave heightAir tempDewpointWater temp
2015-Sep-02 02:31N 46°39' W 084°46'11610.2
2015-Sep-01 15:11N 45°12' W 082°57'3511.7
2015-Sep-01 12:09N 44°37' W 082°53'711.5
2015-Sep-01 11:33N 44°30' W 082°50'159 4.7
2015-Aug-31 01:33N 42°17' W 080°48'2411.9
2015-Aug-30 23:33N 42°26' W 080°18'1711.9
2015-Aug-30 22:06N 42°33' W 079°57'712.1
2015-Aug-30 21:32N 42°37' W 079°49'41 5.9
2015-Aug-30 14:28N 43°08' W 079°12'1 0.7
2015-Aug-30 12:28N 43°09' W 079°12'1 1.3
2015-Aug-30 11:32N 43°11' W 079°12'1 1.1
2015-Aug-30 10:32N 43°12' W 079°12'1 0.8
2015-Aug-30 09:33N 43°12' W 079°13'1 0.9
2015-Aug-30 08:34N 43°13' W 079°13'1 0.8
2015-Aug-30 07:33N 43°14' W 079°13'20 9.0
2015-Aug-30 05:20N 43°27' W 078°51'234 8.3
2015-Aug-29 01:14N 45°14' W 074°00'5 7.8
2015-Aug-29 00:33N 45°18' W 073°56'1 1.0
2015-Aug-28 23:33N 45°19' W 073°55'4 3.5
2015-Aug-28 22:32N 45°21' W 073°51'8 8.5
2015-Aug-28 21:33N 45°25' W 073°40'5 4.6
2015-Aug-28 20:32N 45°24' W 073°34'6 1.9
2015-Aug-28 17:24N 45°30' W 073°31'43 7.4
2015-Aug-28 11:33N 46°06' W 072°58'9 9.4
2015-Aug-28 10:33N 46°13' W 072°49'1010.0
2015-Aug-28 09:33N 46°17' W 072°36'9 8.7
2015-Aug-28 08:33N 46°23' W 072°26'9 9.2
2015-Aug-28 07:33N 46°28' W 072°15'  
2015-Aug-25 22:26N 46°41' W 071°53'1112.3
2015-Aug-25 21:30N 46°34' W 072°06'1112.1
2015-Aug-25 20:33N 46°26' W 072°19'1212.3
2015-Aug-25 19:33N 46°19' W 072°33'1110.9
2015-Aug-25 18:33N 46°14' W 072°47'55 8.7
2015-Aug-25 12:16N 45°28' W 073°30'4 5.2
2015-Aug-25 11:33N 45°25' W 073°32'2 1.9
2015-Aug-25 10:32N 45°24' W 073°35'4 4.5
2015-Aug-25 09:33N 45°25' W 073°41'5 5.0
2015-Aug-25 08:33N 45°24' W 073°48'7 6.9
2015-Aug-25 07:33N 45°19' W 073°55'1 1.0
2015-Aug-25 06:33N 45°18' W 073°56'2 1.7
2015-Aug-25 05:33N 45°17' W 073°57'5 5.4
2015-Aug-25 04:33N 45°13' W 074°03'117 8.2
2015-Aug-24 14:19N 44°09' W 076°20'911.8
2015-Aug-24 13:32N 44°01' W 076°27'8612.0
2015-Aug-24 06:24N 43°30' W 078°18'1012.1
2015-Aug-24 05:33N 43°27' W 078°31'1211.8
2015-Aug-24 04:33N 43°24' W 078°47'1211.5
2015-Aug-24 03:33N 43°21' W 079°02'1010.2
2015-Aug-24 02:33N 43°14' W 079°13'2 1.7
2015-Aug-24 01:33N 43°13' W 079°13'1 1.3
2015-Aug-24 00:33N 43°12' W 079°12'2 2.0
2015-Aug-23 23:33N 43°10' W 079°12'1 0.8
2015-Aug-23 22:33N 43°09' W 079°12'1 0.6
2015-Aug-23 21:33N 43°08' W 079°12'0 0.3
2015-Aug-23 20:33N 43°08' W 079°12'1 0.5
2015-Aug-23 19:33N 43°07' W 079°12'2 2.3
2015-Aug-23 18:33N 43°05' W 079°13'50 6.3
2015-Aug-23 10:31N 42°28' W 079°60'  

Dump ship's entire track history